createdAt,value
2019-05-12T00:00:28.865Z,2.45
2019-05-12T00:02:59.371Z,2.55
2019-05-12T00:05:28.056Z,3.00
2019-05-12T00:07:58.735Z,2.60
2019-05-12T00:10:28.325Z,2.67
2019-05-12T00:12:58.170Z,3.30
2019-05-12T00:15:27.967Z,2.80
2019-05-12T00:17:58.709Z,2.98
2019-05-12T00:20:28.381Z,3.02
2019-05-12T00:23:05.131Z,2.65
2019-05-12T00:25:33.573Z,2.67
2019-05-12T00:28:02.001Z,2.65
2019-05-12T00:30:41.029Z,3.00
2019-05-12T00:33:09.735Z,2.55
2019-05-12T00:35:38.353Z,2.65
2019-05-12T00:38:09.045Z,2.83
2019-05-12T00:40:39.885Z,2.80
2019-05-12T00:43:09.175Z,3.65
2019-05-12T00:45:38.732Z,2.87
2019-05-12T00:48:09.019Z,3.30
2019-05-12T00:50:38.327Z,2.80
2019-05-12T00:53:08.971Z,3.00
2019-05-12T00:55:38.075Z,3.17
2019-05-12T00:58:08.808Z,3.30
2019-05-12T01:00:41.671Z,3.15
2019-05-12T01:03:18.824Z,2.17
2019-05-12T01:05:48.555Z,3.12
2019-05-12T01:08:18.680Z,3.10
2019-05-12T01:10:47.914Z,3.20
2019-05-12T01:13:18.399Z,2.80
2019-05-12T01:15:48.171Z,3.00
2019-05-12T01:18:18.131Z,3.40
2019-05-12T01:20:47.929Z,3.12
2019-05-12T01:23:18.684Z,3.58
2019-05-12T01:25:47.779Z,2.87
2019-05-12T01:28:18.370Z,2.80
2019-05-12T01:30:47.959Z,2.75
2019-05-12T01:33:18.426Z,3.27
2019-05-12T01:35:48.276Z,2.98
2019-05-12T01:38:18.235Z,3.37
2019-05-12T01:40:47.924Z,3.12
2019-05-12T01:43:20.669Z,3.20
2019-05-12T01:45:48.289Z,2.70
2019-05-12T01:48:18.377Z,2.77
2019-05-12T01:50:47.564Z,3.55
2019-05-12T01:53:18.135Z,3.00
2019-05-12T01:55:48.343Z,2.85
2019-05-12T01:58:19.059Z,2.72
2019-05-12T02:00:48.303Z,3.60
2019-05-12T02:03:17.863Z,3.62
2019-05-12T02:05:48.575Z,3.02
2019-05-12T02:08:18.646Z,3.90
2019-05-12T02:10:51.138Z,4.00
2019-05-12T02:15:48.605Z,3.75
2019-05-12T02:18:17.837Z,3.30
2019-05-12T02:20:48.183Z,3.42
2019-05-12T02:23:17.861Z,3.52
2019-05-12T02:25:48.325Z,3.80
2019-05-12T02:28:18.003Z,3.55
2019-05-12T02:30:49.961Z,4.20
2019-05-12T02:33:17.039Z,3.42
2019-05-12T02:35:45.441Z,4.35
2019-05-12T02:38:14.624Z,3.90
2019-05-12T02:40:44.916Z,3.65
2019-05-12T02:43:15.378Z,5.05
2019-05-12T02:45:46.024Z,4.00
2019-05-12T02:48:14.734Z,3.42
2019-05-12T02:50:45.228Z,3.93
2019-05-12T02:53:14.520Z,4.05
2019-05-12T02:55:44.984Z,4.25
2019-05-12T02:58:16.166Z,4.15
2019-05-12T03:00:45.860Z,4.12
2019-05-12T03:03:16.322Z,4.45
2019-05-12T03:05:46.786Z,4.87
2019-05-12T03:08:15.569Z,3.95
2019-05-12T03:10:45.833Z,4.30
2019-05-12T03:13:15.043Z,4.03
2019-05-12T03:15:44.572Z,4.55
2019-05-12T03:18:14.693Z,4.20
2019-05-12T03:20:45.453Z,4.50
2019-05-12T03:23:15.717Z,4.03
2019-05-12T03:25:45.595Z,4.53
2019-05-12T03:28:15.892Z,4.55
2019-05-12T03:30:48.404Z,4.08
2019-05-12T03:33:19.489Z,4.30
2019-05-12T03:35:52.272Z,4.53
2019-05-12T03:38:17.281Z,4.62
2019-05-12T03:40:45.695Z,4.72
2019-05-12T03:43:14.735Z,4.87
2019-05-12T03:45:45.249Z,5.00
2019-05-12T03:48:14.876Z,4.70
2019-05-12T03:50:46.132Z,4.72
2019-05-12T03:53:15.441Z,4.97
2019-05-12T03:55:47.026Z,4.70
2019-05-12T03:58:15.453Z,4.47
2019-05-12T04:00:44.992Z,4.22
2019-05-12T04:03:15.366Z,4.30
2019-05-12T04:05:45.229Z,4.05
2019-05-12T04:08:15.850Z,4.65
2019-05-12T04:10:45.412Z,3.97
2019-05-12T04:13:15.105Z,4.47
2019-05-12T04:15:45.471Z,4.53
2019-05-12T04:18:16.033Z,4.80
2019-05-12T04:20:45.306Z,4.60
2019-05-12T04:23:16.254Z,4.50
2019-05-12T04:25:52.216Z,4.15
2019-05-12T04:28:18.836Z,3.85
2019-05-12T04:33:15.722Z,4.20
2019-05-12T04:35:45.163Z,4.08
2019-05-12T04:38:14.885Z,5.03
2019-05-12T04:40:44.936Z,4.42
2019-05-12T04:43:15.000Z,5.17
2019-05-12T04:45:45.189Z,4.97
2019-05-12T04:48:15.538Z,4.40
2019-05-12T04:50:45.238Z,4.55
2019-05-12T04:53:15.262Z,4.65
2019-05-12T04:55:44.577Z,4.25
2019-05-12T04:58:15.810Z,4.53
2019-05-12T05:00:44.834Z,3.42
2019-05-12T05:03:14.223Z,3.87
2019-05-12T05:05:44.350Z,3.37
2019-05-12T05:08:14.514Z,3.20
2019-05-12T05:10:44.344Z,2.55
2019-05-12T05:13:14.884Z,2.62
2019-05-12T05:15:44.609Z,2.17
2019-05-12T05:18:13.475Z,2.00
2019-05-12T05:20:43.838Z,2.20
2019-05-12T05:23:14.226Z,1.77
2019-05-12T05:25:43.453Z,2.02
2019-05-12T05:28:14.322Z,2.22
2019-05-12T05:30:44.114Z,2.10
2019-05-12T05:33:14.475Z,2.42
2019-05-12T05:35:43.610Z,2.25
2019-05-12T05:38:19.076Z,2.40
2019-05-12T05:40:46.361Z,1.87
2019-05-12T05:43:18.518Z,1.87
2019-05-12T05:45:45.361Z,2.45
2019-05-12T05:48:13.775Z,2.27
2019-05-12T05:50:43.837Z,2.30
2019-05-12T05:53:15.476Z,1.95
2019-05-12T05:55:44.230Z,1.92
2019-05-12T05:58:12.708Z,1.77
2019-05-12T06:00:43.440Z,2.08
2019-05-12T06:03:14.601Z,2.30
2019-05-12T06:05:43.354Z,2.30
2019-05-12T06:08:18.669Z,1.98
2019-05-12T06:10:46.028Z,1.85
2019-05-12T06:13:21.104Z,2.30
2019-05-12T06:15:47.232Z,2.10
2019-05-12T06:18:15.650Z,1.80
2019-05-12T06:20:44.060Z,2.20
2019-05-12T06:23:14.761Z,2.15
2019-05-12T06:25:47.389Z,1.93
2019-05-12T06:28:15.255Z,2.12
2019-05-12T06:30:46.611Z,1.90
2019-05-12T06:33:14.429Z,2.25
2019-05-12T06:35:45.378Z,2.08
2019-05-12T06:38:13.604Z,1.95
2019-05-12T06:40:46.067Z,2.58
2019-05-12T06:43:14.960Z,1.90
2019-05-12T06:45:45.671Z,1.90
2019-05-12T06:48:14.166Z,2.27
2019-05-12T06:50:44.141Z,2.50
2019-05-12T06:53:13.943Z,1.80
2019-05-12T06:55:43.265Z,1.55
2019-05-12T06:58:13.999Z,2.25
2019-05-12T07:00:43.720Z,1.87
2019-05-12T07:03:14.318Z,1.25
2019-05-12T07:05:45.102Z,1.92
2019-05-12T07:08:20.143Z,1.77
2019-05-12T07:10:46.061Z,2.12
2019-05-12T07:13:14.758Z,2.40
2019-05-12T07:15:44.076Z,2.00
2019-05-12T07:18:17.743Z,1.82
2019-05-12T07:20:46.748Z,1.60
2019-05-12T07:23:19.729Z,1.92
2019-05-12T07:25:45.354Z,1.92
2019-05-12T07:28:14.403Z,1.85
2019-05-12T07:30:44.059Z,1.82
2019-05-12T07:33:14.648Z,1.55
2019-05-12T07:35:44.577Z,1.67
2019-05-12T07:38:21.281Z,1.80
2019-05-12T07:40:49.180Z,1.50
2019-05-12T07:43:20.643Z,1.37
2019-05-12T07:45:56.658Z,1.45
2019-05-12T07:48:23.150Z,1.90
2019-05-12T07:50:56.395Z,2.05
2019-05-12T07:53:23.264Z,1.52
2019-05-12T07:55:53.232Z,1.80
2019-05-12T07:58:23.989Z,1.62
2019-05-12T08:01:02.438Z,1.47
2019-05-12T08:03:26.143Z,1.62
2019-05-12T08:05:57.453Z,1.60
2019-05-12T08:08:25.822Z,1.50
2019-05-12T08:10:56.031Z,1.47
2019-05-12T08:13:24.549Z,1.95
2019-05-12T08:15:56.448Z,2.42
2019-05-12T08:18:24.703Z,1.90
2019-05-12T08:20:53.920Z,1.50
2019-05-12T08:23:23.437Z,1.52
2019-05-12T08:25:53.968Z,1.82
2019-05-12T08:28:27.830Z,1.35
2019-05-12T08:30:54.830Z,2.12
2019-05-12T08:33:24.179Z,1.50
2019-05-12T08:35:55.190Z,1.55
2019-05-12T08:38:24.874Z,1.67
2019-05-12T08:40:55.395Z,1.10
2019-05-12T08:43:24.216Z,1.20
2019-05-12T08:45:53.603Z,1.85
2019-05-12T08:48:25.138Z,1.85
2019-05-12T08:50:54.683Z,1.40
2019-05-12T08:53:26.124Z,1.50
2019-05-12T08:55:54.770Z,1.20
2019-05-12T08:58:33.959Z,1.00
2019-05-12T09:00:55.355Z,0.98
2019-05-12T09:03:27.139Z,1.30
2019-05-12T09:05:54.279Z,1.93
2019-05-12T09:08:24.274Z,1.40
2019-05-12T09:10:55.394Z,1.40
2019-05-12T09:13:23.504Z,1.55
2019-05-12T09:15:53.992Z,1.43
2019-05-12T09:18:28.348Z,1.32
2019-05-12T09:20:57.677Z,1.27
2019-05-12T09:23:27.109Z,1.20
2019-05-12T09:25:57.426Z,0.82
2019-05-12T09:28:43.599Z,1.30
2019-05-12T09:30:59.685Z,1.27
2019-05-12T09:33:34.486Z,1.40
2019-05-12T09:36:05.421Z,1.30
2019-05-12T09:38:33.859Z,1.32
2019-05-12T09:41:03.262Z,1.55
2019-05-12T09:43:40.145Z,1.27
2019-05-12T09:46:07.072Z,1.17
2019-05-12T09:48:39.199Z,0.85
2019-05-12T09:51:08.163Z,1.20
2019-05-12T09:53:50.755Z,1.05
2019-05-12T09:56:13.788Z,1.20
2019-05-12T09:58:43.615Z,1.05
2019-05-12T10:01:15.161Z,1.10
2019-05-12T10:03:43.943Z,0.93
2019-05-12T10:06:17.982Z,1.35
2019-05-12T10:08:43.981Z,1.20
2019-05-12T10:11:16.674Z,1.30
2019-05-12T10:13:44.943Z,1.25
2019-05-12T10:16:13.696Z,1.10
2019-05-12T10:18:45.371Z,1.30
2019-05-12T10:21:15.384Z,1.42
2019-05-12T10:23:44.727Z,1.00
2019-05-12T10:26:14.694Z,1.12
2019-05-12T10:28:51.802Z,1.17
2019-05-12T10:31:13.997Z,1.20
2019-05-12T10:33:43.287Z,1.55
2019-05-12T10:36:11.762Z,1.32
2019-05-12T10:38:40.171Z,1.25
2019-05-12T10:41:08.649Z,1.10
2019-05-12T10:43:37.071Z,1.50
2019-05-12T10:46:06.297Z,1.20
2019-05-12T10:48:34.765Z,1.40
2019-05-12T10:51:04.117Z,0.97
2019-05-12T10:53:34.132Z,0.90
2019-05-12T10:56:06.550Z,1.10
2019-05-12T10:58:35.066Z,1.10
2019-05-12T11:01:05.215Z,0.90
2019-05-12T11:03:33.834Z,1.40
2019-05-12T11:06:07.300Z,0.82
2019-05-12T11:08:33.293Z,1.20
2019-05-12T11:11:05.484Z,0.85
2019-05-12T11:13:34.394Z,1.15
2019-05-12T11:16:04.202Z,0.93
2019-05-12T11:18:34.102Z,1.00
2019-05-12T11:21:03.595Z,0.70
2019-05-12T11:23:34.456Z,1.05
2019-05-12T11:26:04.030Z,0.80
2019-05-12T11:28:33.656Z,1.10
2019-05-12T11:31:02.662Z,1.20
2019-05-12T11:33:34.074Z,0.90
2019-05-12T11:36:04.418Z,1.20
2019-05-12T11:38:35.847Z,1.00
2019-05-12T11:43:36.466Z,1.07
2019-05-12T11:46:05.373Z,1.20
2019-05-12T11:48:34.009Z,0.80
2019-05-12T11:51:03.931Z,1.00
2019-05-12T11:53:35.650Z,1.10
2019-05-12T11:56:07.684Z,0.88
2019-05-12T11:58:33.512Z,0.82
2019-05-12T12:01:08.149Z,1.00
2019-05-12T12:03:34.037Z,1.10
2019-05-12T12:06:02.550Z,1.05
2019-05-12T12:08:33.777Z,1.30
2019-05-12T12:11:04.024Z,1.30
2019-05-12T12:13:35.467Z,0.80
2019-05-12T12:16:06.819Z,1.00
2019-05-12T12:18:34.033Z,0.90
2019-05-12T12:21:07.788Z,1.05
2019-05-12T12:23:40.886Z,1.00
2019-05-12T12:26:10.521Z,1.00
2019-05-12T12:28:43.502Z,1.10
2019-05-12T12:31:13.288Z,1.10
2019-05-12T12:33:47.256Z,1.30
2019-05-12T12:36:16.853Z,1.00
2019-05-12T12:38:47.899Z,1.07
2019-05-12T12:41:16.455Z,0.98
2019-05-12T12:43:47.069Z,1.35
2019-05-12T12:46:21.446Z,1.00
2019-05-12T12:48:51.445Z,0.98
2019-05-12T12:51:19.855Z,0.98
2019-05-12T12:53:48.379Z,0.90
2019-05-12T12:56:25.105Z,1.45
2019-05-12T12:58:50.921Z,1.25
2019-05-12T13:01:28.731Z,0.90
2019-05-12T13:03:59.250Z,1.02
2019-05-12T13:06:28.108Z,0.90
2019-05-12T13:08:56.634Z,1.10
2019-05-12T13:11:33.197Z,0.93
2019-05-12T13:13:55.547Z,0.80
2019-05-12T13:16:26.443Z,0.90
2019-05-12T13:18:54.854Z,1.07
2019-05-12T13:21:23.400Z,0.93
2019-05-12T13:23:54.002Z,1.12
2019-05-12T13:26:23.904Z,1.02
2019-05-12T13:28:54.857Z,1.00
2019-05-12T13:31:24.343Z,0.98
2019-05-12T13:33:54.694Z,0.82
2019-05-12T13:36:24.191Z,1.00
2019-05-12T13:38:52.760Z,0.88
2019-05-12T13:41:21.258Z,0.72
2019-05-12T13:43:54.434Z,0.90
2019-05-12T13:46:19.847Z,1.00
2019-05-12T13:48:49.879Z,1.15
2019-05-12T13:51:18.484Z,1.00
2019-05-12T13:53:50.332Z,0.60
2019-05-12T13:58:50.958Z,0.80
2019-05-12T14:01:20.847Z,1.00
2019-05-12T14:03:50.923Z,1.07
2019-05-12T14:06:22.976Z,0.80
2019-05-12T14:08:53.841Z,1.17
2019-05-12T14:11:23.879Z,1.57
2019-05-12T14:13:52.808Z,1.07
2019-05-12T14:16:23.996Z,1.00
2019-05-12T14:18:57.014Z,1.10
2019-05-12T14:21:24.463Z,1.42
2019-05-12T14:23:53.251Z,0.95
2019-05-12T14:26:24.110Z,0.70
2019-05-12T14:28:53.325Z,1.00
2019-05-12T14:31:29.238Z,1.05
2019-05-12T14:33:53.884Z,0.90
2019-05-12T14:36:26.658Z,1.22
2019-05-12T14:38:53.550Z,0.82
2019-05-12T14:41:26.544Z,0.90
2019-05-12T14:44:01.732Z,1.15
2019-05-12T14:46:29.870Z,1.20
2019-05-12T14:49:20.437Z,1.17
2019-05-12T14:51:49.165Z,1.30
2019-05-12T14:54:23.868Z,1.00
2019-05-12T14:56:53.692Z,0.98
2019-05-12T14:59:24.303Z,1.27
2019-05-12T15:01:58.992Z,0.80
2019-05-12T15:04:27.844Z,1.17
2019-05-12T15:06:53.458Z,1.12
2019-05-12T15:09:24.553Z,1.37
2019-05-12T15:11:52.429Z,1.52
2019-05-12T15:14:26.735Z,1.10
2019-05-12T15:16:55.804Z,1.32
2019-05-12T15:19:27.771Z,1.07
2019-05-12T15:21:54.440Z,1.20
2019-05-12T15:24:24.564Z,1.43
2019-05-12T15:26:57.517Z,1.37
2019-05-12T15:29:23.605Z,0.90
2019-05-12T15:31:56.316Z,1.30
2019-05-12T15:34:23.822Z,1.50
2019-05-12T15:36:56.066Z,1.52
2019-05-12T15:39:23.707Z,1.33
2019-05-12T15:41:56.613Z,1.45
2019-05-12T15:44:30.469Z,0.90
2019-05-12T15:46:53.542Z,1.60
2019-05-12T15:49:27.217Z,1.20
2019-05-12T15:51:58.548Z,1.70
2019-05-12T15:54:26.646Z,1.00
2019-05-12T15:56:55.774Z,1.52
2019-05-12T15:59:24.303Z,2.00
2019-05-12T16:01:57.292Z,1.47
2019-05-12T16:04:23.545Z,1.73
2019-05-12T16:06:57.095Z,1.12
2019-05-12T16:09:23.774Z,1.87
2019-05-12T16:11:52.306Z,2.05
2019-05-12T16:14:23.259Z,1.53
2019-05-12T16:16:54.863Z,1.20
2019-05-12T16:19:26.337Z,1.62
2019-05-12T16:21:55.660Z,1.70
2019-05-12T16:24:27.145Z,1.43
2019-05-12T16:26:54.297Z,1.30
2019-05-12T16:29:23.318Z,1.80
2019-05-12T16:31:54.599Z,2.05
2019-05-12T16:34:23.392Z,1.83
2019-05-12T16:36:54.581Z,1.60
2019-05-12T16:39:30.553Z,2.20
2019-05-12T16:42:00.162Z,2.02
2019-05-12T16:44:26.535Z,1.30
2019-05-12T16:46:57.832Z,1.50
2019-05-12T16:49:33.171Z,1.30
2019-05-12T16:51:57.831Z,1.47
2019-05-12T16:54:26.273Z,1.20
2019-05-12T16:57:00.141Z,1.75
2019-05-12T16:59:25.990Z,1.50
2019-05-12T17:01:54.457Z,1.37
2019-05-12T17:04:27.236Z,1.30
2019-05-12T17:06:55.649Z,1.30
2019-05-12T17:09:24.647Z,1.32
2019-05-12T17:11:55.733Z,0.98
2019-05-12T17:14:28.461Z,1.27
2019-05-12T17:16:58.769Z,1.07
2019-05-12T17:19:27.236Z,1.30
2019-05-12T17:21:59.481Z,1.60
2019-05-12T17:24:26.119Z,1.60
2019-05-12T17:26:54.559Z,1.85
2019-05-12T17:29:24.234Z,1.20
2019-05-12T17:31:53.526Z,1.57
2019-05-12T17:34:26.196Z,1.13
2019-05-12T17:39:29.368Z,1.27
2019-05-12T17:42:00.585Z,1.47
2019-05-12T17:44:31.130Z,1.45
2019-05-12T17:46:59.131Z,1.22
2019-05-12T17:49:30.935Z,2.05
2019-05-12T17:52:04.474Z,1.60
2019-05-12T17:54:30.281Z,1.40
2019-05-12T17:57:01.186Z,1.55
2019-05-12T17:59:29.565Z,1.32
2019-05-12T18:01:58.038Z,1.40
2019-05-12T18:04:30.383Z,1.55
2019-05-12T18:06:56.617Z,1.12
2019-05-12T18:09:26.105Z,1.32
2019-05-12T18:11:56.270Z,1.32
2019-05-12T18:14:27.816Z,1.40
2019-05-12T18:17:02.830Z,1.50
2019-05-12T18:19:25.110Z,1.40
2019-05-12T18:21:56.565Z,1.42
2019-05-12T18:24:27.037Z,1.45
2019-05-12T18:27:00.132Z,1.30
2019-05-12T18:29:25.014Z,1.57
2019-05-12T18:31:55.609Z,1.27
2019-05-12T18:34:25.307Z,1.72
2019-05-12T18:36:56.267Z,1.60
2019-05-12T18:39:24.408Z,0.90
2019-05-12T18:41:55.679Z,1.82
2019-05-12T18:44:30.911Z,1.50
2019-05-12T18:46:54.297Z,1.77
2019-05-12T18:49:23.861Z,1.77
2019-05-12T18:51:55.088Z,1.80
2019-05-12T18:54:28.736Z,1.73
2019-05-12T18:57:02.567Z,1.67
2019-05-12T18:59:28.432Z,1.52
2019-05-12T19:01:57.896Z,1.40
2019-05-12T19:04:27.388Z,1.65
2019-05-12T19:06:57.664Z,1.60
2019-05-12T19:09:29.034Z,1.55
2019-05-12T19:11:58.392Z,1.50
2019-05-12T19:14:34.941Z,2.07
2019-05-12T19:16:57.531Z,1.50
2019-05-12T19:19:26.246Z,1.27
2019-05-12T19:22:05.125Z,1.87
2019-05-12T19:24:27.603Z,1.70
2019-05-12T19:26:56.010Z,1.80
2019-05-12T19:29:29.538Z,1.65
2019-05-12T19:31:57.995Z,1.60
2019-05-12T19:34:26.427Z,1.77
2019-05-12T19:36:55.002Z,1.72
2019-05-12T19:39:26.400Z,1.40
2019-05-12T19:41:55.618Z,1.77
2019-05-12T19:44:30.747Z,1.62
2019-05-12T19:47:03.139Z,1.87
2019-05-12T19:49:46.875Z,1.65
2019-05-12T19:52:08.567Z,1.60
2019-05-12T19:54:41.096Z,1.75
2019-05-12T19:59:42.010Z,1.80
2019-05-12T20:02:09.128Z,1.75
2019-05-12T20:04:43.195Z,1.98
2019-05-12T20:07:07.798Z,1.90
2019-05-12T20:09:36.205Z,2.10
2019-05-12T20:12:15.652Z,2.05
2019-05-12T20:14:38.706Z,2.35
2019-05-12T20:17:07.133Z,2.62
2019-05-12T20:19:35.544Z,1.92
2019-05-12T20:22:08.551Z,2.00
2019-05-12T20:24:37.024Z,1.55
2019-05-12T20:27:10.572Z,2.10
2019-05-12T20:29:38.904Z,1.98
2019-05-12T20:32:07.322Z,2.05
2019-05-12T20:34:49.109Z,2.37
2019-05-12T20:37:13.353Z,2.22
2019-05-12T20:39:38.801Z,2.08
2019-05-12T20:42:07.262Z,1.75
2019-05-12T20:44:35.703Z,1.85
2019-05-12T20:47:06.950Z,2.30
2019-05-12T20:49:35.416Z,2.20
2019-05-12T20:52:09.013Z,2.15
2019-05-12T20:54:34.713Z,1.77
2019-05-12T20:57:07.834Z,2.17
2019-05-12T20:59:33.843Z,2.90
2019-05-12T21:02:03.638Z,1.82
2019-05-12T21:04:37.462Z,2.33
2019-05-12T21:07:04.562Z,2.58
2019-05-12T21:09:34.780Z,2.60
2019-05-12T21:12:02.672Z,2.55
2019-05-12T21:14:33.307Z,2.62
2019-05-12T21:17:03.042Z,2.55
2019-05-12T21:19:35.690Z,2.15
2019-05-12T21:22:04.013Z,2.85
2019-05-12T21:24:37.699Z,2.12
2019-05-12T21:27:03.846Z,2.10
2019-05-12T21:29:33.869Z,2.25
2019-05-12T21:32:11.563Z,2.15
2019-05-12T21:34:34.468Z,2.33
2019-05-12T21:37:06.655Z,2.70
2019-05-12T21:39:35.234Z,2.70
2019-05-12T21:42:06.214Z,2.87
2019-05-12T21:44:34.665Z,2.72
2019-05-12T21:47:09.488Z,2.98
2019-05-12T21:49:35.881Z,2.60
2019-05-12T21:52:06.748Z,2.45
2019-05-12T21:54:39.575Z,2.80
2019-05-12T21:57:07.902Z,2.50
2019-05-12T21:59:39.649Z,2.27
2019-05-12T22:02:06.949Z,3.08
2019-05-12T22:04:41.345Z,2.50
2019-05-12T22:07:06.938Z,2.52
2019-05-12T22:09:41.645Z,2.95
2019-05-12T22:12:06.964Z,2.58
2019-05-12T22:14:39.340Z,2.22
2019-05-12T22:17:07.735Z,2.10
2019-05-12T22:19:38.159Z,2.05
2019-05-12T22:22:06.290Z,2.52
2019-05-12T22:24:38.749Z,2.45
2019-05-12T22:27:05.253Z,3.40
2019-05-12T22:29:34.422Z,2.90
2019-05-12T22:32:05.123Z,2.65
2019-05-12T22:34:39.787Z,2.17
2019-05-12T22:37:05.091Z,2.22
2019-05-12T22:39:34.181Z,2.75
2019-05-12T22:42:04.761Z,2.55
2019-05-12T22:44:34.748Z,3.25
2019-05-12T22:47:11.351Z,2.52
2019-05-12T22:49:34.582Z,2.52
2019-05-12T22:52:06.820Z,2.58
2019-05-12T22:54:35.297Z,2.72
2019-05-12T22:57:04.207Z,2.25
2019-05-12T22:59:40.306Z,2.02
2019-05-12T23:02:08.446Z,2.33
2019-05-12T23:04:40.302Z,2.67
2019-05-12T23:07:09.678Z,3.45
2019-05-12T23:09:39.811Z,2.23
2019-05-12T23:12:18.107Z,2.75
2019-05-12T23:14:41.101Z,2.73
2019-05-12T23:17:09.509Z,3.42
2019-05-12T23:19:42.970Z,3.05
2019-05-12T23:22:08.095Z,2.92
2019-05-12T23:24:40.620Z,2.30
2019-05-12T23:27:08.895Z,2.60
2019-05-12T23:29:37.957Z,2.45
2019-05-12T23:32:11.768Z,2.70
2019-05-12T23:34:36.700Z,2.70
2019-05-12T23:37:05.109Z,2.85
2019-05-12T23:39:37.997Z,2.80
2019-05-12T23:42:04.481Z,2.98
2019-05-12T23:44:33.500Z,2.45
2019-05-12T23:47:04.076Z,2.52
2019-05-12T23:49:33.731Z,2.55
2019-05-12T23:52:03.836Z,2.60
2019-05-12T23:54:34.429Z,2.33
2019-05-12T23:57:03.888Z,3.08
2019-05-12T23:59:33.390Z,2.65
